createdAt,value
2023-06-04T00:01:51.992Z,100.00
2023-06-04T00:04:19.677Z,100.00
2023-06-04T00:06:47.343Z,100.00
2023-06-04T00:09:15.163Z,100.00
2023-06-04T00:11:42.957Z,100.00
2023-06-04T00:14:12.127Z,100.00
2023-06-04T00:16:39.828Z,100.00
2023-06-04T00:19:07.503Z,100.00
2023-06-04T00:21:35.075Z,100.00
2023-06-04T00:24:02.922Z,100.00
2023-06-04T00:26:30.645Z,100.00
2023-06-04T00:28:58.593Z,100.00
2023-06-04T00:31:28.153Z,100.00
2023-06-04T00:33:55.804Z,100.00
2023-06-04T00:36:23.522Z,100.00
2023-06-04T00:38:51.186Z,100.00
2023-06-04T00:41:18.839Z,100.00
2023-06-04T00:43:46.906Z,100.00
2023-06-04T00:46:18.964Z,100.00
2023-06-04T00:48:48.210Z,100.00
2023-06-04T00:51:16.063Z,100.00
2023-06-04T00:53:45.574Z,100.00
2023-06-04T00:56:13.968Z,100.00
2023-06-04T00:58:41.743Z,100.00
2023-06-04T01:01:10.218Z,100.00
2023-06-04T01:03:38.120Z,100.00
2023-06-04T01:06:10.195Z,100.00
2023-06-04T01:08:38.041Z,100.00
2023-06-04T01:11:06.023Z,100.00
2023-06-04T01:13:33.903Z,100.00
2023-06-04T01:16:02.961Z,100.00
2023-06-04T01:18:30.721Z,100.00
2023-06-04T01:20:59.787Z,100.00
2023-06-04T01:23:34.852Z,100.00
2023-06-04T01:26:04.515Z,100.00
2023-06-04T01:28:32.619Z,100.00
2023-06-04T01:31:00.813Z,100.00
2023-06-04T01:33:29.402Z,100.00
2023-06-04T01:35:57.020Z,100.00
2023-06-04T01:38:26.697Z,100.00
2023-06-04T01:40:57.405Z,100.00
2023-06-04T01:43:25.276Z,100.00
2023-06-04T01:45:52.950Z,100.00
2023-06-04T01:48:20.534Z,100.00
2023-06-04T01:50:48.137Z,100.00
2023-06-04T01:53:15.934Z,100.00
2023-06-04T01:55:44.131Z,100.00
2023-06-04T01:58:13.074Z,100.00
2023-06-04T02:00:40.930Z,100.00
2023-06-04T02:03:09.867Z,100.00
2023-06-04T02:05:37.929Z,100.00
2023-06-04T02:08:05.931Z,100.00
2023-06-04T02:10:33.755Z,100.00
2023-06-04T02:13:01.787Z,100.00
2023-06-04T02:15:31.603Z,100.00
2023-06-04T02:18:00.689Z,100.00
2023-06-04T02:20:28.422Z,100.00
2023-06-04T02:22:56.093Z,100.00
2023-06-04T02:25:23.997Z,100.00
2023-06-04T02:27:51.693Z,100.00
2023-06-04T02:30:19.446Z,100.00
2023-06-04T02:32:52.770Z,100.00
2023-06-04T02:35:22.351Z,100.00
2023-06-04T02:37:50.155Z,100.00
2023-06-04T02:40:17.863Z,100.00
2023-06-04T02:42:45.531Z,100.00
2023-06-04T02:45:13.282Z,100.00
2023-06-04T02:47:40.939Z,100.00
2023-06-04T02:50:10.590Z,100.00
2023-06-04T02:52:38.870Z,100.00
2023-06-04T02:55:07.958Z,100.00
2023-06-04T02:57:35.939Z,100.00
2023-06-04T03:00:09.304Z,100.00
2023-06-04T03:02:37.585Z,100.00
2023-06-04T03:05:05.403Z,100.00
2023-06-04T03:07:34.349Z,100.00
2023-06-04T03:10:02.796Z,100.00
2023-06-04T03:12:32.073Z,100.00
2023-06-04T03:14:59.675Z,100.00
2023-06-04T03:17:27.877Z,100.00
2023-06-04T03:19:57.123Z,100.00
2023-06-04T03:22:25.034Z,100.00
2023-06-04T03:24:54.356Z,100.00
2023-06-04T03:27:22.108Z,100.00
2023-06-04T03:29:49.939Z,100.00
2023-06-04T03:32:19.103Z,100.00
2023-06-04T03:34:48.345Z,100.00
2023-06-04T03:37:15.944Z,100.00
2023-06-04T03:39:43.590Z,100.00
2023-06-04T03:42:15.676Z,100.00
2023-06-04T03:44:44.216Z,100.00
2023-06-04T03:47:12.563Z,100.00
2023-06-04T03:49:41.914Z,100.00
2023-06-04T03:52:09.818Z,100.00
2023-06-04T03:54:39.412Z,100.00
2023-06-04T03:57:07.243Z,100.00
2023-06-04T03:59:36.237Z,100.00
2023-06-04T04:02:04.152Z,100.00
2023-06-04T04:04:31.893Z,100.00
2023-06-04T04:07:00.768Z,100.00
2023-06-04T04:09:28.894Z,100.00
2023-06-04T04:11:56.929Z,100.00
2023-06-04T04:14:24.768Z,100.00
2023-06-04T04:16:53.918Z,100.00
2023-06-04T04:19:22.057Z,100.00
2023-06-04T04:21:50.340Z,100.00
2023-06-04T04:24:25.639Z,100.00
2023-06-04T04:26:55.051Z,100.00
2023-06-04T04:29:25.762Z,100.00
2023-06-04T04:31:57.386Z,100.00
2023-06-04T04:34:27.448Z,100.00
2023-06-04T04:36:58.081Z,100.00
2023-06-04T04:39:27.384Z,100.00
2023-06-04T04:41:58.053Z,100.00
2023-06-04T04:44:26.031Z,100.00
2023-06-04T04:46:55.820Z,100.00
2023-06-04T04:49:23.463Z,100.00
2023-06-04T04:51:51.215Z,100.00
2023-06-04T04:54:19.459Z,100.00
2023-06-04T04:56:47.998Z,100.00
2023-06-04T04:59:16.504Z,100.00
2023-06-04T05:01:44.214Z,100.00
2023-06-04T05:04:13.287Z,100.00
2023-06-04T05:06:42.409Z,100.00
2023-06-04T05:09:10.181Z,100.00
2023-06-04T05:11:38.290Z,100.00
2023-06-04T05:14:06.696Z,100.00
2023-06-04T05:16:36.516Z,100.00
2023-06-04T05:19:04.830Z,100.00
2023-06-04T05:21:37.852Z,100.00
2023-06-04T05:24:07.720Z,100.00
2023-06-04T05:26:40.756Z,100.00
2023-06-04T05:29:15.333Z,100.00
2023-06-04T05:31:45.040Z,100.00
2023-06-04T05:34:17.494Z,100.00
2023-06-04T05:36:47.376Z,100.00
2023-06-04T05:39:15.594Z,100.00
2023-06-04T05:41:53.051Z,100.00
2023-06-04T05:44:21.160Z,100.00
2023-06-04T05:46:51.839Z,100.00
2023-06-04T05:49:20.856Z,100.00
2023-06-04T05:51:50.326Z,100.00
2023-06-04T05:54:21.690Z,100.00
2023-06-04T05:56:50.526Z,100.00
2023-06-04T05:59:18.253Z,98.93
2023-06-04T06:01:45.876Z,98.39
2023-06-04T06:04:13.756Z,98.52
2023-06-04T06:06:42.130Z,95.41
2023-06-04T06:09:11.162Z,93.85
2023-06-04T06:11:38.832Z,93.42
2023-06-04T06:14:06.500Z,91.98
2023-06-04T06:16:34.517Z,91.94
2023-06-04T06:25:29.139Z,90.77
2023-06-04T06:28:03.077Z,88.37
2023-06-04T06:30:32.198Z,89.99
2023-06-04T06:33:00.015Z,90.38
2023-06-04T06:35:40.812Z,88.94
2023-06-04T06:38:12.298Z,89.07
2023-06-04T06:40:42.383Z,90.07
2023-06-04T06:43:11.151Z,92.72
2023-06-04T06:45:39.020Z,92.41
2023-06-04T06:48:07.220Z,91.89
2023-06-04T06:50:36.751Z,90.99
2023-06-04T06:53:04.731Z,91.04
2023-06-04T06:55:32.582Z,90.94
2023-06-04T06:58:01.879Z,89.58
2023-06-04T07:00:29.939Z,89.13
2023-06-04T07:02:58.059Z,88.16
2023-06-04T07:05:25.982Z,89.21
2023-06-04T07:07:53.879Z,82.82
2023-06-04T07:10:22.045Z,82.98
2023-06-04T07:12:49.881Z,83.41
2023-06-04T07:15:19.952Z,77.68
2023-06-04T07:17:48.106Z,77.73
2023-06-04T07:20:15.965Z,76.19
2023-06-04T07:22:43.946Z,77.78
2023-06-04T07:25:11.732Z,76.85
2023-06-04T07:27:39.662Z,72.93
2023-06-04T07:30:08.850Z,73.63
2023-06-04T07:32:38.160Z,73.54
2023-06-04T07:35:08.339Z,74.55
2023-06-04T07:37:36.220Z,73.42
2023-06-04T07:40:04.837Z,70.75
2023-06-04T07:42:32.690Z,69.24
2023-06-04T07:45:00.463Z,68.72
2023-06-04T07:47:30.546Z,68.79
2023-06-04T07:50:03.116Z,65.35
2023-06-04T07:52:31.656Z,66.58
2023-06-04T07:54:59.660Z,63.01
2023-06-04T07:57:27.573Z,64.60
2023-06-04T07:59:55.624Z,61.12
2023-06-04T08:02:23.567Z,57.06
2023-06-04T08:04:52.146Z,59.83
2023-06-04T08:07:21.593Z,56.68
2023-06-04T08:09:50.578Z,58.84
2023-06-04T08:12:18.476Z,58.18
2023-06-04T08:14:46.420Z,59.91
2023-06-04T08:17:14.292Z,58.54
2023-06-04T08:19:42.154Z,56.80
2023-06-04T08:22:12.413Z,58.33
2023-06-04T08:24:41.785Z,55.68
2023-06-04T08:27:09.700Z,53.17
2023-06-04T08:29:38.186Z,53.74
2023-06-04T08:32:06.934Z,54.31
2023-06-04T08:34:34.840Z,54.91
2023-06-04T08:37:02.680Z,53.96
2023-06-04T08:39:30.505Z,54.65
2023-06-04T08:42:02.004Z,55.46
2023-06-04T08:44:30.097Z,53.89
2023-06-04T08:47:04.448Z,55.81
2023-06-04T08:49:32.794Z,54.88
2023-06-04T08:52:00.704Z,53.55
2023-06-04T08:54:28.630Z,54.59
2023-06-04T08:56:58.298Z,52.67
2023-06-04T08:59:27.526Z,52.69
2023-06-04T09:01:55.646Z,53.40
2023-06-04T09:04:23.500Z,53.34
2023-06-04T09:06:51.480Z,50.39
2023-06-04T09:09:19.421Z,51.14
2023-06-04T09:11:49.020Z,52.67
2023-06-04T09:14:17.640Z,52.59
2023-06-04T09:16:47.797Z,51.10
2023-06-04T09:19:15.902Z,49.65
2023-06-04T09:21:50.682Z,52.04
2023-06-04T09:24:18.544Z,49.70
2023-06-04T09:26:46.304Z,51.16
2023-06-04T09:29:14.247Z,50.81
2023-06-04T09:31:42.092Z,53.38
2023-06-04T09:34:11.517Z,49.09
2023-06-04T09:36:40.218Z,49.96
2023-06-04T09:39:16.697Z,50.28
2023-06-04T09:41:46.325Z,49.63
2023-06-04T09:44:14.312Z,47.47
2023-06-04T09:46:42.284Z,47.90
2023-06-04T09:49:12.744Z,49.18
2023-06-04T09:51:48.514Z,50.38
2023-06-04T09:54:16.542Z,49.94
2023-06-04T09:56:44.726Z,50.79
2023-06-04T09:59:12.625Z,49.65
2023-06-04T10:01:41.654Z,48.59
2023-06-04T10:04:09.962Z,49.34
2023-06-04T10:06:39.309Z,48.05
2023-06-04T10:09:07.722Z,48.16
2023-06-04T10:11:36.859Z,48.49
2023-06-04T10:14:05.590Z,49.94
2023-06-04T10:16:34.957Z,50.66
2023-06-04T10:19:03.282Z,49.17
2023-06-04T10:21:32.879Z,48.62
2023-06-04T10:24:02.164Z,49.41
2023-06-04T10:26:31.262Z,49.49
2023-06-04T10:28:59.179Z,49.66
2023-06-04T10:31:27.444Z,50.66
2023-06-04T10:33:56.203Z,49.93
2023-06-04T10:36:24.393Z,49.73
2023-06-04T10:38:54.968Z,49.98
2023-06-04T10:41:26.290Z,50.45
2023-06-04T10:43:54.480Z,52.42
2023-06-04T10:46:25.837Z,48.40
2023-06-04T10:48:57.431Z,50.37
2023-06-04T10:51:31.816Z,49.96
2023-06-04T10:53:59.703Z,49.38
2023-06-04T10:56:29.505Z,47.08
2023-06-04T10:58:57.461Z,49.06
2023-06-04T11:01:26.039Z,48.73
2023-06-04T11:03:54.062Z,49.21
2023-06-04T11:06:22.355Z,49.02
2023-06-04T11:08:50.761Z,46.92
2023-06-04T11:11:18.743Z,47.15
2023-06-04T11:17:41.846Z,47.21
2023-06-04T11:20:17.900Z,47.79
2023-06-04T11:22:46.365Z,48.55
2023-06-04T11:25:14.235Z,46.65
2023-06-04T11:27:42.086Z,45.58
2023-06-04T11:30:10.721Z,47.43
2023-06-04T11:32:38.664Z,48.59
2023-06-04T11:35:08.478Z,45.67
2023-06-04T11:37:36.641Z,46.60
2023-06-04T11:40:06.635Z,45.81
2023-06-04T11:42:34.542Z,46.78
2023-06-04T11:45:02.467Z,49.05
2023-06-04T11:47:30.445Z,45.35
2023-06-04T11:49:58.343Z,44.51
2023-06-04T11:52:28.213Z,44.00
2023-06-04T11:54:55.943Z,45.79
2023-06-04T11:57:23.808Z,44.80
2023-06-04T11:59:51.739Z,45.71
2023-06-04T12:02:23.401Z,45.23
2023-06-04T12:04:52.330Z,43.89
2023-06-04T12:07:22.228Z,44.73
2023-06-04T12:09:51.496Z,45.25
2023-06-04T12:12:23.717Z,46.47
2023-06-04T12:14:58.285Z,43.36
2023-06-04T12:17:26.191Z,45.20
2023-06-04T12:19:54.169Z,44.58
2023-06-04T12:22:22.235Z,44.96
2023-06-04T12:24:54.622Z,45.53
2023-06-04T12:27:24.378Z,44.86
2023-06-04T12:30:01.892Z,44.86
2023-06-04T12:32:29.911Z,43.45
2023-06-04T12:34:57.768Z,43.85
2023-06-04T12:37:26.754Z,44.13
2023-06-04T12:39:56.385Z,42.82
2023-06-04T12:42:24.809Z,43.64
2023-06-04T12:44:52.709Z,42.50
2023-06-04T12:47:22.478Z,44.09
2023-06-04T12:49:50.599Z,44.24
2023-06-04T12:52:18.630Z,45.13
2023-06-04T12:54:46.612Z,40.96
2023-06-04T12:57:16.011Z,42.99
2023-06-04T12:59:43.960Z,44.00
2023-06-04T13:02:12.229Z,44.75
2023-06-04T13:04:40.220Z,43.83
2023-06-04T13:07:08.122Z,43.33
2023-06-04T13:09:36.301Z,44.71
2023-06-04T13:12:04.925Z,43.79
2023-06-04T13:14:35.122Z,42.89
2023-06-04T13:17:14.101Z,43.23
2023-06-04T13:19:49.670Z,44.60
2023-06-04T13:22:17.509Z,44.53
2023-06-04T13:24:45.420Z,44.22
2023-06-04T13:27:13.266Z,44.34
2023-06-04T13:29:44.565Z,42.22
2023-06-04T13:32:13.053Z,45.72
2023-06-04T13:34:41.210Z,43.15
2023-06-04T13:37:12.098Z,43.33
2023-06-04T13:39:40.279Z,41.44
2023-06-04T13:42:08.576Z,43.08
2023-06-04T13:44:36.564Z,40.81
2023-06-04T13:47:06.194Z,43.76
2023-06-04T13:49:34.602Z,42.28
2023-06-04T13:52:02.461Z,42.04
2023-06-04T13:54:30.335Z,43.14
2023-06-04T13:56:58.235Z,43.01
2023-06-04T13:59:26.173Z,42.00
2023-06-04T14:01:54.315Z,43.86
2023-06-04T14:04:23.633Z,45.65
2023-06-04T14:06:51.516Z,42.25
2023-06-04T14:09:19.364Z,40.99
2023-06-04T14:11:51.613Z,41.93
2023-06-04T14:14:19.766Z,41.90
2023-06-04T14:16:47.624Z,43.36
2023-06-04T14:19:16.015Z,43.19
2023-06-04T14:21:45.561Z,41.90
2023-06-04T14:24:13.447Z,41.98
2023-06-04T14:26:41.520Z,41.65
2023-06-04T14:29:09.358Z,42.82
2023-06-04T14:31:37.252Z,43.40
2023-06-04T14:34:05.137Z,41.55
2023-06-04T14:36:32.959Z,42.96
2023-06-04T14:39:02.244Z,42.36
2023-06-04T14:41:30.110Z,42.34
2023-06-04T14:43:57.901Z,42.81
2023-06-04T14:46:26.591Z,44.12
2023-06-04T14:48:54.537Z,42.77
2023-06-04T14:51:22.787Z,41.96
2023-06-04T14:53:50.662Z,43.33
2023-06-04T14:56:20.201Z,42.37
2023-06-04T14:58:48.013Z,42.78
2023-06-04T15:01:17.439Z,42.88
2023-06-04T15:03:45.386Z,41.88
2023-06-04T15:06:19.322Z,44.05
2023-06-04T15:08:48.140Z,41.51
2023-06-04T15:11:16.219Z,43.12
2023-06-04T15:13:45.921Z,41.83
2023-06-04T15:16:14.037Z,41.96
2023-06-04T15:18:42.281Z,41.17
2023-06-04T15:21:10.778Z,41.26
2023-06-04T15:23:38.906Z,41.53
2023-06-04T15:26:06.833Z,42.98
2023-06-04T15:28:34.691Z,41.48
2023-06-04T15:31:04.058Z,41.86
2023-06-04T15:33:31.910Z,41.08
2023-06-04T15:36:00.060Z,41.88
2023-06-04T15:38:30.661Z,41.34
2023-06-04T15:40:59.813Z,39.80
2023-06-04T15:43:27.742Z,40.74
2023-06-04T15:45:55.668Z,41.92
2023-06-04T15:48:27.577Z,39.56
2023-06-04T15:50:55.419Z,41.53
2023-06-04T15:53:24.085Z,40.98
2023-06-04T15:55:52.201Z,40.64
2023-06-04T15:58:20.076Z,41.39
2023-06-04T16:00:47.844Z,40.93
2023-06-04T16:03:15.659Z,41.82
2023-06-04T16:05:45.112Z,42.02
2023-06-04T16:08:13.169Z,41.22
2023-06-04T16:10:42.349Z,41.28
2023-06-04T16:13:10.203Z,41.63
2023-06-04T16:15:38.158Z,43.52
2023-06-04T16:18:06.271Z,41.18
2023-06-04T16:20:34.257Z,41.74
2023-06-04T16:23:03.508Z,43.85
2023-06-04T16:25:31.686Z,41.02
2023-06-04T16:28:00.025Z,42.38
2023-06-04T16:30:29.490Z,42.09
2023-06-04T16:32:58.616Z,41.80
2023-06-04T16:35:26.488Z,43.37
2023-06-04T16:37:54.339Z,41.73
2023-06-04T16:40:23.582Z,42.45
2023-06-04T16:42:51.785Z,42.21
2023-06-04T16:45:19.711Z,41.73
2023-06-04T16:47:49.213Z,41.27
2023-06-04T16:50:17.414Z,41.70
2023-06-04T16:52:45.240Z,42.41
2023-06-04T16:55:13.134Z,41.42
2023-06-04T16:57:42.414Z,41.56
2023-06-04T17:00:25.554Z,41.28
2023-06-04T17:02:54.778Z,43.15
2023-06-04T17:05:25.311Z,42.85
2023-06-04T17:07:53.809Z,43.11
2023-06-04T17:10:21.625Z,42.18
2023-06-04T17:12:51.084Z,41.54
2023-06-04T17:15:18.923Z,42.07
2023-06-04T17:17:49.200Z,43.71
2023-06-04T17:20:18.937Z,43.37
2023-06-04T17:22:46.760Z,42.49
2023-06-04T17:25:14.680Z,42.78
2023-06-04T17:27:42.479Z,42.38
2023-06-04T17:30:12.484Z,43.87
2023-06-04T17:32:40.381Z,43.10
2023-06-04T17:35:10.548Z,44.96
2023-06-04T17:37:38.401Z,43.36
2023-06-04T17:40:06.889Z,44.35
2023-06-04T17:42:34.860Z,44.00
2023-06-04T17:45:05.210Z,44.51
2023-06-04T17:47:34.585Z,44.81
2023-06-04T17:50:07.879Z,48.08
2023-06-04T17:52:36.069Z,45.48
2023-06-04T17:55:04.060Z,45.99
2023-06-04T17:57:32.391Z,46.35
2023-06-04T18:00:00.322Z,47.45
2023-06-04T18:02:28.330Z,47.77
2023-06-04T18:04:57.696Z,47.62
2023-06-04T18:07:25.600Z,48.94
2023-06-04T18:09:53.751Z,48.98
2023-06-04T18:12:21.673Z,47.66
2023-06-04T18:14:49.920Z,48.54
2023-06-04T18:17:17.883Z,48.51
2023-06-04T18:19:46.307Z,49.54
2023-06-04T18:22:15.740Z,49.30
2023-06-04T18:24:43.671Z,50.50
2023-06-04T18:27:11.803Z,50.35
2023-06-04T18:29:39.919Z,51.82
2023-06-04T18:32:08.062Z,54.92
2023-06-04T18:34:35.992Z,55.05
2023-06-04T18:37:03.896Z,57.12
2023-06-04T18:39:33.306Z,57.99
2023-06-04T18:42:02.241Z,59.23
2023-06-04T18:44:30.080Z,61.65
2023-06-04T18:46:58.062Z,65.08
2023-06-04T18:49:26.107Z,68.50
2023-06-04T18:51:54.153Z,71.13
2023-06-04T18:54:22.068Z,72.14
2023-06-04T18:56:51.424Z,74.76
2023-06-04T18:59:19.558Z,76.13
2023-06-04T19:01:47.647Z,69.80
2023-06-04T19:04:15.744Z,67.32
2023-06-04T19:06:43.665Z,64.79
2023-06-04T19:09:11.540Z,61.90
2023-06-04T19:11:40.692Z,60.55
2023-06-04T19:14:11.165Z,60.95
2023-06-04T19:16:39.215Z,61.03
2023-06-04T19:19:09.936Z,60.87
2023-06-04T19:21:38.049Z,60.53
2023-06-04T19:24:06.360Z,60.28
2023-06-04T19:26:34.957Z,59.48
2023-06-04T19:29:02.859Z,59.49
2023-06-04T19:31:32.200Z,58.11
2023-06-04T19:34:00.866Z,57.10
2023-06-04T19:36:28.755Z,57.47
2023-06-04T19:38:57.067Z,58.20
2023-06-04T19:41:24.949Z,57.12
2023-06-04T19:43:52.766Z,54.07
2023-06-04T19:46:20.636Z,51.36
2023-06-04T19:48:49.849Z,49.67
2023-06-04T19:51:17.705Z,48.29
2023-06-04T19:53:45.505Z,54.34
2023-06-04T19:56:13.359Z,59.34
2023-06-04T19:58:41.721Z,61.02
2023-06-04T20:01:10.230Z,62.08
2023-06-04T20:03:38.537Z,62.54
2023-06-04T20:06:08.601Z,63.37
2023-06-04T20:08:36.667Z,63.78
2023-06-04T20:11:04.620Z,66.63
2023-06-04T20:13:32.890Z,67.57
2023-06-04T20:16:00.708Z,69.31
2023-06-04T20:18:29.990Z,71.16
2023-06-04T20:20:57.925Z,74.56
2023-06-04T20:23:27.288Z,79.50
2023-06-04T20:25:55.098Z,83.07
2023-06-04T20:28:22.888Z,86.77
2023-06-04T20:30:50.724Z,86.63
2023-06-04T20:33:18.671Z,90.95
2023-06-04T20:35:46.624Z,88.30
2023-06-04T20:38:14.583Z,87.75
2023-06-04T20:40:43.735Z,87.73
2023-06-04T20:43:11.716Z,87.21
2023-06-04T20:45:39.528Z,88.32
2023-06-04T20:48:07.467Z,95.89
2023-06-04T20:50:35.522Z,100.00
2023-06-04T20:53:03.481Z,100.00
2023-06-04T20:55:31.340Z,100.00
2023-06-04T20:58:00.562Z,100.00
2023-06-04T21:00:30.503Z,100.00
2023-06-04T21:02:58.444Z,100.00
2023-06-04T21:05:26.290Z,100.00
2023-06-04T21:07:54.111Z,98.16
2023-06-04T21:10:21.915Z,99.38
2023-06-04T21:12:49.794Z,100.00
2023-06-04T21:15:19.054Z,100.00
2023-06-04T21:17:46.904Z,100.00
2023-06-04T21:20:14.723Z,100.00
2023-06-04T21:22:42.569Z,100.00
2023-06-04T21:25:10.942Z,100.00
2023-06-04T21:27:38.782Z,100.00
2023-06-04T21:30:07.134Z,100.00
2023-06-04T21:32:36.484Z,100.00
2023-06-04T21:35:04.421Z,100.00
2023-06-04T21:37:32.208Z,100.00
2023-06-04T21:39:59.971Z,100.00
2023-06-04T21:42:27.781Z,100.00
2023-06-04T21:44:56.420Z,100.00
2023-06-04T21:47:24.694Z,100.00
2023-06-04T21:49:53.972Z,100.00
2023-06-04T21:52:25.970Z,100.00
2023-06-04T21:54:54.118Z,100.00
2023-06-04T21:57:21.885Z,100.00
2023-06-04T21:59:49.714Z,100.00
2023-06-04T22:02:17.557Z,100.00
2023-06-04T22:04:45.460Z,100.00
2023-06-04T22:07:14.683Z,100.00
2023-06-04T22:09:42.530Z,100.00
2023-06-04T22:12:10.533Z,100.00
2023-06-04T22:14:39.016Z,100.00
2023-06-04T22:17:06.914Z,100.00
2023-06-04T22:19:34.936Z,100.00
2023-06-04T22:22:02.739Z,100.00
2023-06-04T22:24:31.960Z,100.00
2023-06-04T22:26:59.684Z,100.00
2023-06-04T22:29:27.549Z,100.00
2023-06-04T22:31:55.526Z,100.00
2023-06-04T22:34:23.415Z,100.00
2023-06-04T22:36:51.275Z,100.00
2023-06-04T22:39:19.213Z,100.00
2023-06-04T22:41:48.513Z,100.00
2023-06-04T22:44:16.328Z,100.00
2023-06-04T22:46:44.296Z,100.00
2023-06-04T22:49:14.132Z,100.00
2023-06-04T22:51:43.534Z,100.00
2023-06-04T22:54:11.305Z,100.00
2023-06-04T22:56:39.124Z,100.00
2023-06-04T22:59:08.355Z,100.00
2023-06-04T23:01:36.239Z,100.00
2023-06-04T23:04:04.270Z,100.00
2023-06-04T23:06:32.236Z,97.74
2023-06-04T23:09:00.269Z,98.59
2023-06-04T23:11:28.049Z,99.07
2023-06-04T23:13:55.784Z,99.75
2023-06-04T23:16:25.113Z,98.58
2023-06-04T23:18:52.936Z,98.70
2023-06-04T23:21:20.832Z,99.82
2023-06-04T23:23:48.716Z,100.00
2023-06-04T23:26:16.578Z,100.00
2023-06-04T23:28:44.428Z,100.00
2023-06-04T23:31:12.270Z,100.00
2023-06-04T23:33:41.708Z,100.00
2023-06-04T23:36:09.548Z,100.00
2023-06-04T23:38:37.405Z,100.00
2023-06-04T23:41:05.206Z,100.00
2023-06-04T23:43:33.303Z,100.00
2023-06-04T23:46:01.186Z,100.00
2023-06-04T23:48:29.395Z,100.00
2023-06-04T23:50:58.603Z,100.00
2023-06-04T23:53:27.137Z,100.00
2023-06-04T23:55:54.922Z,100.00
2023-06-04T23:58:22.735Z,100.00
